sensor_id;sensor_type;location;lat;lon;timestamp;P1;durP1;ratioP1;P2;durP2;ratioP2
57828;SDS011;43657;52.698;6.314;2023-12-29T00:00:02;11.40;;;3.40;;
57828;SDS011;43657;52.698;6.314;2023-12-29T00:02:28;10.60;;;3.10;;
57828;SDS011;43657;52.698;6.314;2023-12-29T00:04:54;13.02;;;3.25;;
57828;SDS011;43657;52.698;6.314;2023-12-29T00:07:19;11.63;;;3.33;;
57828;SDS011;43657;52.698;6.314;2023-12-29T00:09:45;12.98;;;2.97;;
57828;SDS011;43657;52.698;6.314;2023-12-29T00:12:10;14.88;;;3.45;;
57828;SDS011;43657;52.698;6.314;2023-12-29T00:14:36;13.88;;;3.65;;
57828;SDS011;43657;52.698;6.314;2023-12-29T00:17:04;11.93;;;3.95;;
57828;SDS011;43657;52.698;6.314;2023-12-29T00:19:30;17.05;;;3.75;;
57828;SDS011;43657;52.698;6.314;2023-12-29T00:21:55;15.93;;;3.80;;
57828;SDS011;43657;52.698;6.314;2023-12-29T00:24:21;17.15;;;4.10;;
57828;SDS011;43657;52.698;6.314;2023-12-29T00:26:46;14.65;;;3.90;;
57828;SDS011;43657;52.698;6.314;2023-12-29T00:29:13;15.98;;;4.22;;
57828;SDS011;43657;52.698;6.314;2023-12-29T00:31:40;14.32;;;3.90;;
57828;SDS011;43657;52.698;6.314;2023-12-29T00:34:06;17.88;;;4.38;;
57828;SDS011;43657;52.698;6.314;2023-12-29T00:36:31;13.30;;;4.40;;
57828;SDS011;43657;52.698;6.314;2023-12-29T00:38:57;15.25;;;4.20;;
57828;SDS011;43657;52.698;6.314;2023-12-29T00:41:22;20.10;;;5.22;;
57828;SDS011;43657;52.698;6.314;2023-12-29T00:43:48;18.80;;;4.80;;
57828;SDS011;43657;52.698;6.314;2023-12-29T00:46:14;18.83;;;4.88;;
57828;SDS011;43657;52.698;6.314;2023-12-29T00:48:40;15.88;;;4.70;;
57828;SDS011;43657;52.698;6.314;2023-12-29T00:51:06;18.38;;;5.50;;
57828;SDS011;43657;52.698;6.314;2023-12-29T00:53:32;20.13;;;5.18;;
57828;SDS011;43657;52.698;6.314;2023-12-29T00:56:00;17.98;;;5.20;;
57828;SDS011;43657;52.698;6.314;2023-12-29T00:58:26;23.42;;;6.35;;
57828;SDS011;43657;52.698;6.314;2023-12-29T01:00:51;18.88;;;5.65;;
57828;SDS011;43657;52.698;6.314;2023-12-29T01:03:17;24.52;;;6.10;;
57828;SDS011;43657;52.698;6.314;2023-12-29T01:05:43;18.73;;;5.72;;
57828;SDS011;43657;52.698;6.314;2023-12-29T01:08:08;25.27;;;6.13;;
57828;SDS011;43657;52.698;6.314;2023-12-29T01:10:34;19.02;;;5.50;;
57828;SDS011;43657;52.698;6.314;2023-12-29T01:12:59;17.45;;;5.60;;
57828;SDS011;43657;52.698;6.314;2023-12-29T01:15:25;17.80;;;4.65;;
57828;SDS011;43657;52.698;6.314;2023-12-29T01:17:51;13.35;;;4.22;;
57828;SDS011;43657;52.698;6.314;2023-12-29T01:20:16;17.45;;;4.78;;
57828;SDS011;43657;52.698;6.314;2023-12-29T01:22:42;15.65;;;4.50;;
57828;SDS011;43657;52.698;6.314;2023-12-29T01:25:07;16.38;;;4.20;;
57828;SDS011;43657;52.698;6.314;2023-12-29T01:27:33;16.50;;;4.60;;
57828;SDS011;43657;52.698;6.314;2023-12-29T01:29:58;13.32;;;3.92;;
57828;SDS011;43657;52.698;6.314;2023-12-29T01:32:25;12.57;;;3.67;;
57828;SDS011;43657;52.698;6.314;2023-12-29T01:34:51;14.82;;;4.25;;
57828;SDS011;43657;52.698;6.314;2023-12-29T01:37:17;16.02;;;3.95;;
57828;SDS011;43657;52.698;6.314;2023-12-29T01:39:43;13.00;;;3.72;;
57828;SDS011;43657;52.698;6.314;2023-12-29T01:42:08;19.85;;;4.97;;
57828;SDS011;43657;52.698;6.314;2023-12-29T01:44:36;17.60;;;4.72;;
57828;SDS011;43657;52.698;6.314;2023-12-29T01:47:01;13.80;;;4.35;;
57828;SDS011;43657;52.698;6.314;2023-12-29T01:49:30;15.77;;;4.95;;
57828;SDS011;43657;52.698;6.314;2023-12-29T01:51:57;16.85;;;5.40;;
57828;SDS011;43657;52.698;6.314;2023-12-29T01:54:25;18.05;;;5.05;;
57828;SDS011;43657;52.698;6.314;2023-12-29T01:56:56;17.50;;;4.57;;
57828;SDS011;43657;52.698;6.314;2023-12-29T01:59:25;19.20;;;5.03;;
57828;SDS011;43657;52.698;6.314;2023-12-29T02:01:51;17.88;;;4.80;;
57828;SDS011;43657;52.698;6.314;2023-12-29T02:04:19;16.15;;;4.40;;
57828;SDS011;43657;52.698;6.314;2023-12-29T02:06:45;14.45;;;4.43;;
57828;SDS011;43657;52.698;6.314;2023-12-29T02:09:11;15.35;;;4.35;;
57828;SDS011;43657;52.698;6.314;2023-12-29T02:11:41;15.38;;;4.63;;
57828;SDS011;43657;52.698;6.314;2023-12-29T02:14:07;13.07;;;3.38;;
57828;SDS011;43657;52.698;6.314;2023-12-29T02:21:50;15.23;;;4.03;;
57828;SDS011;43657;52.698;6.314;2023-12-29T02:24:16;14.90;;;3.80;;
57828;SDS011;43657;52.698;6.314;2023-12-29T02:26:42;14.32;;;4.28;;
57828;SDS011;43657;52.698;6.314;2023-12-29T02:29:13;12.55;;;4.00;;
57828;SDS011;43657;52.698;6.314;2023-12-29T02:31:42;13.27;;;4.03;;
57828;SDS011;43657;52.698;6.314;2023-12-29T02:34:10;14.60;;;3.92;;
57828;SDS011;43657;52.698;6.314;2023-12-29T02:36:39;15.50;;;4.07;;
57828;SDS011;43657;52.698;6.314;2023-12-29T02:39:08;14.82;;;4.20;;
57828;SDS011;43657;52.698;6.314;2023-12-29T02:41:36;16.83;;;4.85;;
57828;SDS011;43657;52.698;6.314;2023-12-29T02:44:03;15.10;;;4.05;;
57828;SDS011;43657;52.698;6.314;2023-12-29T02:46:29;14.15;;;4.10;;
57828;SDS011;43657;52.698;6.314;2023-12-29T02:48:54;14.30;;;3.95;;
57828;SDS011;43657;52.698;6.314;2023-12-29T02:51:20;15.13;;;4.25;;
57828;SDS011;43657;52.698;6.314;2023-12-29T02:53:45;14.50;;;4.47;;
57828;SDS011;43657;52.698;6.314;2023-12-29T02:56:12;17.35;;;4.90;;
57828;SDS011;43657;52.698;6.314;2023-12-29T02:58:37;17.23;;;4.70;;
57828;SDS011;43657;52.698;6.314;2023-12-29T03:01:03;17.75;;;4.30;;
57828;SDS011;43657;52.698;6.314;2023-12-29T03:03:28;16.42;;;4.50;;
57828;SDS011;43657;52.698;6.314;2023-12-29T03:05:54;13.18;;;5.03;;
57828;SDS011;43657;52.698;6.314;2023-12-29T03:08:19;15.50;;;4.88;;
57828;SDS011;43657;52.698;6.314;2023-12-29T03:10:45;15.93;;;4.75;;
57828;SDS011;43657;52.698;6.314;2023-12-29T03:13:11;13.68;;;4.20;;
57828;SDS011;43657;52.698;6.314;2023-12-29T03:15:36;16.90;;;4.85;;
57828;SDS011;43657;52.698;6.314;2023-12-29T03:18:02;14.10;;;5.30;;
57828;SDS011;43657;52.698;6.314;2023-12-29T03:20:27;17.92;;;4.63;;
57828;SDS011;43657;52.698;6.314;2023-12-29T03:22:53;15.77;;;4.82;;
57828;SDS011;43657;52.698;6.314;2023-12-29T03:25:20;16.35;;;4.32;;
57828;SDS011;43657;52.698;6.314;2023-12-29T03:27:45;11.82;;;3.88;;
57828;SDS011;43657;52.698;6.314;2023-12-29T03:30:11;10.40;;;3.88;;
57828;SDS011;43657;52.698;6.314;2023-12-29T03:32:37;13.00;;;4.28;;
57828;SDS011;43657;52.698;6.314;2023-12-29T03:35:02;12.40;;;3.92;;
57828;SDS011;43657;52.698;6.314;2023-12-29T03:37:29;18.38;;;4.60;;
57828;SDS011;43657;52.698;6.314;2023-12-29T03:39:54;15.85;;;4.60;;
57828;SDS011;43657;52.698;6.314;2023-12-29T03:42:20;17.67;;;5.22;;
57828;SDS011;43657;52.698;6.314;2023-12-29T03:44:45;16.33;;;4.32;;
57828;SDS011;43657;52.698;6.314;2023-12-29T03:47:11;15.68;;;4.63;;
57828;SDS011;43657;52.698;6.314;2023-12-29T03:49:36;15.30;;;4.90;;
57828;SDS011;43657;52.698;6.314;2023-12-29T03:52:02;16.95;;;5.10;;
57828;SDS011;43657;52.698;6.314;2023-12-29T03:54:28;17.60;;;5.57;;
57828;SDS011;43657;52.698;6.314;2023-12-29T03:56:53;20.48;;;5.55;;
57828;SDS011;43657;52.698;6.314;2023-12-29T03:59:19;20.27;;;5.90;;
57828;SDS011;43657;52.698;6.314;2023-12-29T04:01:44;23.25;;;6.30;;
57828;SDS011;43657;52.698;6.314;2023-12-29T04:04:10;24.60;;;6.80;;
57828;SDS011;43657;52.698;6.314;2023-12-29T04:06:36;25.63;;;7.60;;
57828;SDS011;43657;52.698;6.314;2023-12-29T04:09:01;33.55;;;7.55;;
57828;SDS011;43657;52.698;6.314;2023-12-29T04:11:27;24.85;;;6.80;;
57828;SDS011;43657;52.698;6.314;2023-12-29T04:13:52;23.35;;;5.65;;
57828;SDS011;43657;52.698;6.314;2023-12-29T04:16:18;25.13;;;5.43;;
57828;SDS011;43657;52.698;6.314;2023-12-29T04:18:43;21.88;;;5.53;;
57828;SDS011;43657;52.698;6.314;2023-12-29T04:21:13;23.23;;;6.03;;
57828;SDS011;43657;52.698;6.314;2023-12-29T04:23:39;21.58;;;5.90;;
57828;SDS011;43657;52.698;6.314;2023-12-29T04:26:06;20.10;;;4.78;;
57828;SDS011;43657;52.698;6.314;2023-12-29T04:28:32;22.30;;;4.68;;
57828;SDS011;43657;52.698;6.314;2023-12-29T04:30:58;24.48;;;4.75;;
57828;SDS011;43657;52.698;6.314;2023-12-29T04:33:23;21.55;;;5.72;;
57828;SDS011;43657;52.698;6.314;2023-12-29T04:35:49;21.85;;;5.60;;
57828;SDS011;43657;52.698;6.314;2023-12-29T04:38:14;24.92;;;5.28;;
57828;SDS011;43657;52.698;6.314;2023-12-29T04:40:42;19.15;;;4.97;;
57828;SDS011;43657;52.698;6.314;2023-12-29T04:43:08;25.20;;;5.47;;
57828;SDS011;43657;52.698;6.314;2023-12-29T04:45:33;20.83;;;4.70;;
57828;SDS011;43657;52.698;6.314;2023-12-29T04:47:59;19.98;;;4.70;;
57828;SDS011;43657;52.698;6.314;2023-12-29T04:50:24;20.25;;;5.15;;
57828;SDS011;43657;52.698;6.314;2023-12-29T04:52:50;22.00;;;5.40;;
57828;SDS011;43657;52.698;6.314;2023-12-29T04:55:16;22.85;;;5.05;;
57828;SDS011;43657;52.698;6.314;2023-12-29T04:57:41;23.38;;;5.18;;
57828;SDS011;43657;52.698;6.314;2023-12-29T05:00:07;23.95;;;5.90;;
57828;SDS011;43657;52.698;6.314;2023-12-29T05:02:33;22.13;;;5.55;;
57828;SDS011;43657;52.698;6.314;2023-12-29T05:04:58;21.23;;;5.82;;
57828;SDS011;43657;52.698;6.314;2023-12-29T05:07:24;26.45;;;5.68;;
57828;SDS011;43657;52.698;6.314;2023-12-29T05:09:49;24.20;;;5.43;;
57828;SDS011;43657;52.698;6.314;2023-12-29T05:12:15;24.27;;;5.40;;
57828;SDS011;43657;52.698;6.314;2023-12-29T05:14:41;25.05;;;6.13;;
57828;SDS011;43657;52.698;6.314;2023-12-29T05:17:06;25.55;;;6.25;;
57828;SDS011;43657;52.698;6.314;2023-12-29T05:19:33;23.55;;;5.63;;
57828;SDS011;43657;52.698;6.314;2023-12-29T05:21:59;22.15;;;4.97;;
57828;SDS011;43657;52.698;6.314;2023-12-29T05:24:24;24.73;;;5.38;;
57828;SDS011;43657;52.698;6.314;2023-12-29T05:26:50;22.00;;;5.90;;
57828;SDS011;43657;52.698;6.314;2023-12-29T05:29:15;26.42;;;6.13;;
57828;SDS011;43657;52.698;6.314;2023-12-29T05:31:41;19.58;;;5.20;;
57828;SDS011;43657;52.698;6.314;2023-12-29T05:34:06;25.67;;;6.38;;
57828;SDS011;43657;52.698;6.314;2023-12-29T05:36:34;23.05;;;5.43;;
57828;SDS011;43657;52.698;6.314;2023-12-29T05:39:01;24.70;;;5.85;;
57828;SDS011;43657;52.698;6.314;2023-12-29T05:41:27;25.08;;;6.05;;
57828;SDS011;43657;52.698;6.314;2023-12-29T05:43:53;26.70;;;5.28;;
57828;SDS011;43657;52.698;6.314;2023-12-29T05:46:18;24.30;;;6.07;;
57828;SDS011;43657;52.698;6.314;2023-12-29T05:48:44;27.50;;;6.32;;
57828;SDS011;43657;52.698;6.314;2023-12-29T05:51:12;25.23;;;5.82;;
57828;SDS011;43657;52.698;6.314;2023-12-29T05:53:42;26.35;;;6.15;;
57828;SDS011;43657;52.698;6.314;2023-12-29T05:56:10;29.38;;;6.38;;
57828;SDS011;43657;52.698;6.314;2023-12-29T05:58:37;25.85;;;6.43;;
57828;SDS011;43657;52.698;6.314;2023-12-29T06:01:02;27.65;;;6.07;;
57828;SDS011;43657;52.698;6.314;2023-12-29T06:03:28;25.35;;;6.20;;
57828;SDS011;43657;52.698;6.314;2023-12-29T06:05:54;29.70;;;5.93;;
57828;SDS011;43657;52.698;6.314;2023-12-29T06:08:19;29.67;;;6.55;;
57828;SDS011;43657;52.698;6.314;2023-12-29T06:10:45;27.55;;;6.43;;
57828;SDS011;43657;52.698;6.314;2023-12-29T06:13:10;27.75;;;5.55;;
57828;SDS011;43657;52.698;6.314;2023-12-29T06:15:36;27.02;;;6.32;;
57828;SDS011;43657;52.698;6.314;2023-12-29T06:18:02;30.95;;;7.25;;
57828;SDS011;43657;52.698;6.314;2023-12-29T06:20:28;29.23;;;7.00;;
57828;SDS011;43657;52.698;6.314;2023-12-29T06:22:53;34.47;;;7.60;;
57828;SDS011;43657;52.698;6.314;2023-12-29T06:25:19;33.00;;;7.05;;
57828;SDS011;43657;52.698;6.314;2023-12-29T06:27:45;27.13;;;6.97;;
57828;SDS011;43657;52.698;6.314;2023-12-29T06:30:11;30.88;;;6.80;;
57828;SDS011;43657;52.698;6.314;2023-12-29T06:32:37;30.30;;;7.03;;
57828;SDS011;43657;52.698;6.314;2023-12-29T06:35:03;33.15;;;6.45;;
57828;SDS011;43657;52.698;6.314;2023-12-29T06:37:29;32.22;;;7.25;;
57828;SDS011;43657;52.698;6.314;2023-12-29T06:39:54;36.47;;;8.00;;
57828;SDS011;43657;52.698;6.314;2023-12-29T06:42:20;34.90;;;7.18;;
57828;SDS011;43657;52.698;6.314;2023-12-29T06:44:46;33.38;;;6.97;;
57828;SDS011;43657;52.698;6.314;2023-12-29T06:47:11;28.95;;;7.15;;
57828;SDS011;43657;52.698;6.314;2023-12-29T06:49:37;37.13;;;7.40;;
57828;SDS011;43657;52.698;6.314;2023-12-29T06:52:04;37.80;;;7.43;;
57828;SDS011;43657;52.698;6.314;2023-12-29T06:54:30;35.90;;;7.72;;
57828;SDS011;43657;52.698;6.314;2023-12-29T06:56:55;35.90;;;7.05;;
57828;SDS011;43657;52.698;6.314;2023-12-29T06:59:21;39.72;;;7.38;;
57828;SDS011;43657;52.698;6.314;2023-12-29T07:01:47;34.95;;;7.40;;
57828;SDS011;43657;52.698;6.314;2023-12-29T07:04:13;39.03;;;7.85;;
57828;SDS011;43657;52.698;6.314;2023-12-29T07:06:40;34.22;;;7.75;;
57828;SDS011;43657;52.698;6.314;2023-12-29T07:09:06;39.15;;;7.57;;
57828;SDS011;43657;52.698;6.314;2023-12-29T07:11:33;34.10;;;7.22;;
57828;SDS011;43657;52.698;6.314;2023-12-29T07:13:59;38.67;;;7.10;;
57828;SDS011;43657;52.698;6.314;2023-12-29T07:16:25;34.00;;;7.03;;
57828;SDS011;43657;52.698;6.314;2023-12-29T07:18:50;31.52;;;6.95;;
57828;SDS011;43657;52.698;6.314;2023-12-29T07:21:17;36.47;;;7.55;;
57828;SDS011;43657;52.698;6.314;2023-12-29T07:23:43;40.03;;;8.63;;
57828;SDS011;43657;52.698;6.314;2023-12-29T07:26:08;34.30;;;8.38;;
57828;SDS011;43657;52.698;6.314;2023-12-29T07:28:34;41.75;;;7.63;;
57828;SDS011;43657;52.698;6.314;2023-12-29T07:31:00;30.35;;;7.30;;
57828;SDS011;43657;52.698;6.314;2023-12-29T07:33:26;29.40;;;7.70;;
57828;SDS011;43657;52.698;6.314;2023-12-29T07:35:52;29.88;;;7.45;;
57828;SDS011;43657;52.698;6.314;2023-12-29T07:38:17;33.00;;;8.07;;
57828;SDS011;43657;52.698;6.314;2023-12-29T07:40:43;31.15;;;7.40;;
57828;SDS011;43657;52.698;6.314;2023-12-29T07:43:09;31.40;;;6.78;;
57828;SDS011;43657;52.698;6.314;2023-12-29T07:45:34;26.45;;;7.03;;
57828;SDS011;43657;52.698;6.314;2023-12-29T07:48:01;28.23;;;7.13;;
57828;SDS011;43657;52.698;6.314;2023-12-29T07:50:28;30.35;;;7.03;;
57828;SDS011;43657;52.698;6.314;2023-12-29T07:52:53;34.33;;;7.97;;
57828;SDS011;43657;52.698;6.314;2023-12-29T07:55:19;26.88;;;6.43;;
57828;SDS011;43657;52.698;6.314;2023-12-29T07:57:44;26.52;;;6.15;;
57828;SDS011;43657;52.698;6.314;2023-12-29T08:00:12;26.85;;;6.65;;
57828;SDS011;43657;52.698;6.314;2023-12-29T08:02:39;24.52;;;6.05;;
57828;SDS011;43657;52.698;6.314;2023-12-29T08:05:05;31.30;;;6.97;;
57828;SDS011;43657;52.698;6.314;2023-12-29T08:07:33;25.45;;;5.93;;
57828;SDS011;43657;52.698;6.314;2023-12-29T08:10:05;31.30;;;6.97;;
57828;SDS011;43657;52.698;6.314;2023-12-29T08:12:32;29.05;;;6.22;;
57828;SDS011;43657;52.698;6.314;2023-12-29T08:15:01;25.13;;;6.85;;
57828;SDS011;43657;52.698;6.314;2023-12-29T08:17:27;21.70;;;6.25;;
57828;SDS011;43657;52.698;6.314;2023-12-29T08:19:54;25.52;;;6.35;;
57828;SDS011;43657;52.698;6.314;2023-12-29T08:22:20;22.92;;;6.10;;
57828;SDS011;43657;52.698;6.314;2023-12-29T08:24:46;24.00;;;6.57;;
57828;SDS011;43657;52.698;6.314;2023-12-29T08:27:12;26.50;;;5.97;;
57828;SDS011;43657;52.698;6.314;2023-12-29T08:29:38;22.65;;;6.40;;
57828;SDS011;43657;52.698;6.314;2023-12-29T08:32:04;24.00;;;6.40;;
57828;SDS011;43657;52.698;6.314;2023-12-29T08:34:30;23.75;;;5.50;;
57828;SDS011;43657;52.698;6.314;2023-12-29T08:36:56;19.80;;;4.90;;
57828;SDS011;43657;52.698;6.314;2023-12-29T08:39:25;19.95;;;5.22;;
57828;SDS011;43657;52.698;6.314;2023-12-29T08:41:53;20.45;;;5.60;;
57828;SDS011;43657;52.698;6.314;2023-12-29T08:44:18;22.92;;;5.60;;
57828;SDS011;43657;52.698;6.314;2023-12-29T08:46:44;22.35;;;5.95;;
57828;SDS011;43657;52.698;6.314;2023-12-29T08:49:12;20.35;;;4.95;;
57828;SDS011;43657;52.698;6.314;2023-12-29T08:51:37;21.08;;;5.50;;
57828;SDS011;43657;52.698;6.314;2023-12-29T08:54:03;18.38;;;5.32;;
57828;SDS011;43657;52.698;6.314;2023-12-29T08:56:29;22.48;;;5.13;;
57828;SDS011;43657;52.698;6.314;2023-12-29T08:58:54;18.10;;;5.15;;
57828;SDS011;43657;52.698;6.314;2023-12-29T09:01:20;16.20;;;5.03;;
57828;SDS011;43657;52.698;6.314;2023-12-29T09:04:12;17.92;;;5.20;;
57828;SDS011;43657;52.698;6.314;2023-12-29T09:06:38;16.45;;;4.85;;
57828;SDS011;43657;52.698;6.314;2023-12-29T09:09:14;15.70;;;4.70;;
57828;SDS011;43657;52.698;6.314;2023-12-29T09:11:43;18.00;;;5.65;;
57828;SDS011;43657;52.698;6.314;2023-12-29T09:14:10;15.90;;;5.30;;
57828;SDS011;43657;52.698;6.314;2023-12-29T09:16:35;13.85;;;4.43;;
57828;SDS011;43657;52.698;6.314;2023-12-29T09:19:01;13.35;;;5.20;;
57828;SDS011;43657;52.698;6.314;2023-12-29T09:21:35;14.75;;;5.68;;
57828;SDS011;43657;52.698;6.314;2023-12-29T09:24:03;15.98;;;5.32;;
57828;SDS011;43657;52.698;6.314;2023-12-29T09:26:29;19.73;;;5.47;;
57828;SDS011;43657;52.698;6.314;2023-12-29T09:28:55;15.05;;;4.90;;
57828;SDS011;43657;52.698;6.314;2023-12-29T09:31:21;12.73;;;5.20;;
57828;SDS011;43657;52.698;6.314;2023-12-29T09:33:49;14.15;;;5.13;;
57828;SDS011;43657;52.698;6.314;2023-12-29T09:36:15;12.98;;;5.18;;
57828;SDS011;43657;52.698;6.314;2023-12-29T09:38:46;12.10;;;4.03;;
57828;SDS011;43657;52.698;6.314;2023-12-29T09:41:14;14.48;;;4.00;;
57828;SDS011;43657;52.698;6.314;2023-12-29T09:43:41;13.20;;;4.10;;
57828;SDS011;43657;52.698;6.314;2023-12-29T09:46:08;11.32;;;3.88;;
57828;SDS011;43657;52.698;6.314;2023-12-29T09:48:38;10.63;;;3.95;;
57828;SDS011;43657;52.698;6.314;2023-12-29T09:51:06;8.98;;;4.18;;
57828;SDS011;43657;52.698;6.314;2023-12-29T09:53:35;13.30;;;4.07;;
57828;SDS011;43657;52.698;6.314;2023-12-29T09:56:08;13.55;;;5.00;;
57828;SDS011;43657;52.698;6.314;2023-12-29T09:58:37;12.63;;;3.83;;
57828;SDS011;43657;52.698;6.314;2023-12-29T10:01:11;10.68;;;3.45;;
57828;SDS011;43657;52.698;6.314;2023-12-29T10:03:40;11.10;;;2.75;;
57828;SDS011;43657;52.698;6.314;2023-12-29T10:06:06;10.00;;;3.08;;
57828;SDS011;43657;52.698;6.314;2023-12-29T10:08:35;10.15;;;3.03;;
57828;SDS011;43657;52.698;6.314;2023-12-29T10:11:03;10.52;;;2.60;;
57828;SDS011;43657;52.698;6.314;2023-12-29T10:13:30;7.43;;;2.33;;
57828;SDS011;43657;52.698;6.314;2023-12-29T10:16:10;9.38;;;2.35;;
57828;SDS011;43657;52.698;6.314;2023-12-29T10:19:08;10.60;;;2.60;;
57828;SDS011;43657;52.698;6.314;2023-12-29T10:21:52;12.70;;;2.15;;
57828;SDS011;43657;52.698;6.314;2023-12-29T10:24:27;11.02;;;2.17;;
57828;SDS011;43657;52.698;6.314;2023-12-29T10:26:55;11.80;;;2.47;;
57828;SDS011;43657;52.698;6.314;2023-12-29T10:29:21;9.75;;;2.08;;
57828;SDS011;43657;52.698;6.314;2023-12-29T10:31:47;9.15;;;2.20;;
57828;SDS011;43657;52.698;6.314;2023-12-29T10:34:20;9.98;;;2.78;;
57828;SDS011;43657;52.698;6.314;2023-12-29T10:36:53;9.20;;;2.35;;
57828;SDS011;43657;52.698;6.314;2023-12-29T10:39:31;9.65;;;3.33;;
57828;SDS011;43657;52.698;6.314;2023-12-29T10:42:07;11.70;;;3.85;;
57828;SDS011;43657;52.698;6.314;2023-12-29T10:44:34;10.30;;;3.45;;
57828;SDS011;43657;52.698;6.314;2023-12-29T10:47:09;11.82;;;3.47;;
57828;SDS011;43657;52.698;6.314;2023-12-29T10:49:35;10.18;;;3.55;;
57828;SDS011;43657;52.698;6.314;2023-12-29T10:52:12;17.13;;;3.53;;
57828;SDS011;43657;52.698;6.314;2023-12-29T10:54:41;18.88;;;3.88;;
57828;SDS011;43657;52.698;6.314;2023-12-29T10:57:09;13.45;;;4.07;;
57828;SDS011;43657;52.698;6.314;2023-12-29T10:59:36;17.25;;;3.78;;
57828;SDS011;43657;52.698;6.314;2023-12-29T11:02:02;15.55;;;3.70;;
57828;SDS011;43657;52.698;6.314;2023-12-29T11:04:28;16.05;;;3.92;;
57828;SDS011;43657;52.698;6.314;2023-12-29T11:06:54;19.35;;;4.07;;
57828;SDS011;43657;52.698;6.314;2023-12-29T11:09:29;17.65;;;4.10;;
57828;SDS011;43657;52.698;6.314;2023-12-29T11:12:03;17.77;;;4.13;;
57828;SDS011;43657;52.698;6.314;2023-12-29T11:14:31;21.10;;;4.57;;
57828;SDS011;43657;52.698;6.314;2023-12-29T11:16:57;18.52;;;4.50;;
57828;SDS011;43657;52.698;6.314;2023-12-29T11:19:25;17.73;;;4.78;;
57828;SDS011;43657;52.698;6.314;2023-12-29T11:21:52;20.50;;;4.95;;
57828;SDS011;43657;52.698;6.314;2023-12-29T11:24:22;15.77;;;5.00;;
57828;SDS011;43657;52.698;6.314;2023-12-29T11:26:49;18.95;;;4.97;;
57828;SDS011;43657;52.698;6.314;2023-12-29T11:29:18;18.45;;;4.85;;
57828;SDS011;43657;52.698;6.314;2023-12-29T11:31:47;17.45;;;4.13;;
57828;SDS011;43657;52.698;6.314;2023-12-29T11:34:20;20.67;;;4.50;;
57828;SDS011;43657;52.698;6.314;2023-12-29T11:36:56;21.00;;;5.00;;
57828;SDS011;43657;52.698;6.314;2023-12-29T11:42:17;19.02;;;4.20;;
57828;SDS011;43657;52.698;6.314;2023-12-29T11:45:23;21.00;;;4.03;;
57828;SDS011;43657;52.698;6.314;2023-12-29T11:48:00;23.42;;;5.05;;
57828;SDS011;43657;52.698;6.314;2023-12-29T11:50:30;23.13;;;5.10;;
57828;SDS011;43657;52.698;6.314;2023-12-29T11:53:05;24.80;;;4.78;;
57828;SDS011;43657;52.698;6.314;2023-12-29T11:55:36;22.17;;;4.43;;
57828;SDS011;43657;52.698;6.314;2023-12-29T11:58:23;23.10;;;5.18;;
57828;SDS011;43657;52.698;6.314;2023-12-29T12:00:51;17.67;;;4.28;;
57828;SDS011;43657;52.698;6.314;2023-12-29T12:03:18;17.95;;;4.05;;
57828;SDS011;43657;52.698;6.314;2023-12-29T12:05:54;17.90;;;3.45;;
57828;SDS011;43657;52.698;6.314;2023-12-29T12:08:41;18.75;;;3.38;;
57828;SDS011;43657;52.698;6.314;2023-12-29T12:14:04;17.52;;;3.88;;
57828;SDS011;43657;52.698;6.314;2023-12-29T12:19:11;16.58;;;3.40;;
57828;SDS011;43657;52.698;6.314;2023-12-29T12:21:37;15.13;;;3.30;;
57828;SDS011;43657;52.698;6.314;2023-12-29T12:24:03;19.80;;;4.22;;
57828;SDS011;43657;52.698;6.314;2023-12-29T12:26:33;21.92;;;4.70;;
57828;SDS011;43657;52.698;6.314;2023-12-29T12:29:02;19.42;;;5.07;;
57828;SDS011;43657;52.698;6.314;2023-12-29T12:31:29;16.65;;;3.63;;
57828;SDS011;43657;52.698;6.314;2023-12-29T12:33:57;14.75;;;4.05;;
57828;SDS011;43657;52.698;6.314;2023-12-29T12:36:25;13.88;;;3.63;;
57828;SDS011;43657;52.698;6.314;2023-12-29T12:38:57;12.18;;;3.20;;
57828;SDS011;43657;52.698;6.314;2023-12-29T12:41:24;17.15;;;3.28;;
57828;SDS011;43657;52.698;6.314;2023-12-29T12:44:00;16.02;;;3.45;;
57828;SDS011;43657;52.698;6.314;2023-12-29T12:46:39;14.75;;;3.10;;
57828;SDS011;43657;52.698;6.314;2023-12-29T12:49:17;13.27;;;3.45;;
57828;SDS011;43657;52.698;6.314;2023-12-29T12:51:44;18.50;;;3.92;;
57828;SDS011;43657;52.698;6.314;2023-12-29T12:54:10;16.20;;;3.47;;
57828;SDS011;43657;52.698;6.314;2023-12-29T12:56:37;14.75;;;3.58;;
57828;SDS011;43657;52.698;6.314;2023-12-29T12:59:02;18.13;;;3.55;;
57828;SDS011;43657;52.698;6.314;2023-12-29T13:01:29;14.73;;;3.72;;
57828;SDS011;43657;52.698;6.314;2023-12-29T13:03:59;16.10;;;3.83;;
57828;SDS011;43657;52.698;6.314;2023-12-29T13:06:25;16.67;;;3.72;;
57828;SDS011;43657;52.698;6.314;2023-12-29T13:08:51;13.30;;;2.83;;
57828;SDS011;43657;52.698;6.314;2023-12-29T13:11:21;18.25;;;4.25;;
57828;SDS011;43657;52.698;6.314;2023-12-29T13:13:47;16.40;;;3.28;;
57828;SDS011;43657;52.698;6.314;2023-12-29T13:16:13;15.82;;;3.72;;
57828;SDS011;43657;52.698;6.314;2023-12-29T13:18:39;14.82;;;3.50;;
57828;SDS011;43657;52.698;6.314;2023-12-29T13:21:05;15.57;;;3.08;;
57828;SDS011;43657;52.698;6.314;2023-12-29T13:23:31;18.60;;;3.42;;
57828;SDS011;43657;52.698;6.314;2023-12-29T13:25:59;13.80;;;2.80;;
57828;SDS011;43657;52.698;6.314;2023-12-29T13:28:27;12.43;;;2.67;;
57828;SDS011;43657;52.698;6.314;2023-12-29T13:30:54;13.23;;;3.13;;
57828;SDS011;43657;52.698;6.314;2023-12-29T13:33:43;15.05;;;3.28;;
57828;SDS011;43657;52.698;6.314;2023-12-29T13:39:09;15.57;;;3.22;;
57828;SDS011;43657;52.698;6.314;2023-12-29T13:41:59;13.20;;;3.00;;
57828;SDS011;43657;52.698;6.314;2023-12-29T13:44:27;12.20;;;3.00;;
57828;SDS011;43657;52.698;6.314;2023-12-29T13:46:54;13.65;;;3.45;;
57828;SDS011;43657;52.698;6.314;2023-12-29T13:49:20;15.20;;;3.03;;
57828;SDS011;43657;52.698;6.314;2023-12-29T13:51:46;14.00;;;3.28;;
57828;SDS011;43657;52.698;6.314;2023-12-29T13:54:12;13.98;;;3.63;;
57828;SDS011;43657;52.698;6.314;2023-12-29T13:56:38;15.13;;;3.42;;
57828;SDS011;43657;52.698;6.314;2023-12-29T13:59:04;13.00;;;3.40;;
57828;SDS011;43657;52.698;6.314;2023-12-29T14:01:38;15.88;;;3.67;;
57828;SDS011;43657;52.698;6.314;2023-12-29T14:04:06;18.15;;;3.75;;
57828;SDS011;43657;52.698;6.314;2023-12-29T14:06:43;12.80;;;3.50;;
57828;SDS011;43657;52.698;6.314;2023-12-29T14:09:16;14.73;;;3.13;;
57828;SDS011;43657;52.698;6.314;2023-12-29T14:11:48;14.68;;;3.30;;
57828;SDS011;43657;52.698;6.314;2023-12-29T14:14:21;17.02;;;3.80;;
57828;SDS011;43657;52.698;6.314;2023-12-29T14:16:52;16.80;;;3.55;;
57828;SDS011;43657;52.698;6.314;2023-12-29T14:19:18;16.00;;;2.95;;
57828;SDS011;43657;52.698;6.314;2023-12-29T14:21:44;17.17;;;4.03;;
57828;SDS011;43657;52.698;6.314;2023-12-29T14:24:14;15.45;;;3.83;;
57828;SDS011;43657;52.698;6.314;2023-12-29T14:27:02;16.80;;;3.00;;
57828;SDS011;43657;52.698;6.314;2023-12-29T14:29:28;15.27;;;3.72;;
57828;SDS011;43657;52.698;6.314;2023-12-29T14:31:53;15.65;;;3.65;;
57828;SDS011;43657;52.698;6.314;2023-12-29T14:34:21;15.35;;;3.60;;
57828;SDS011;43657;52.698;6.314;2023-12-29T14:36:47;12.07;;;2.95;;
57828;SDS011;43657;52.698;6.314;2023-12-29T14:39:13;14.20;;;3.05;;
57828;SDS011;43657;52.698;6.314;2023-12-29T14:41:40;16.02;;;3.38;;
57828;SDS011;43657;52.698;6.314;2023-12-29T14:44:06;16.70;;;3.88;;
57828;SDS011;43657;52.698;6.314;2023-12-29T14:46:32;14.18;;;3.30;;
57828;SDS011;43657;52.698;6.314;2023-12-29T14:48:59;14.38;;;3.17;;
57828;SDS011;43657;52.698;6.314;2023-12-29T14:51:25;14.25;;;3.80;;
57828;SDS011;43657;52.698;6.314;2023-12-29T14:53:51;14.98;;;3.55;;